createdAt,value
2022-12-10T00:00:54.451Z,20.50
2022-12-10T00:02:26.174Z,19.15
2022-12-10T00:03:58.182Z,19.83
2022-12-10T00:05:29.918Z,21.70
2022-12-10T00:07:01.472Z,20.15
2022-12-10T00:08:34.212Z,18.15
2022-12-10T00:10:10.841Z,18.58
2022-12-10T00:11:43.314Z,18.40
2022-12-10T00:13:14.880Z,18.70
2022-12-10T00:14:46.546Z,19.90
2022-12-10T00:16:19.945Z,20.17
2022-12-10T00:17:51.606Z,18.23
2022-12-10T00:19:23.231Z,19.55
2022-12-10T00:20:55.513Z,20.42
2022-12-10T00:22:27.146Z,19.42
2022-12-10T00:23:59.942Z,19.33
2022-12-10T00:25:33.100Z,17.73
2022-12-10T00:27:04.732Z,20.65
2022-12-10T00:28:36.553Z,20.90
2022-12-10T00:30:08.852Z,20.23
2022-12-10T00:31:41.330Z,20.55
2022-12-10T00:33:13.132Z,22.77
2022-12-10T00:34:44.740Z,21.88
2022-12-10T00:36:24.498Z,19.48
2022-12-10T00:37:56.163Z,21.58
2022-12-10T00:39:28.010Z,21.40
2022-12-10T00:41:00.175Z,19.98
2022-12-10T00:42:31.961Z,19.73
2022-12-10T00:44:03.757Z,20.92
2022-12-10T00:45:35.317Z,19.77
2022-12-10T00:47:06.992Z,19.23
2022-12-10T00:48:38.701Z,20.27
2022-12-10T00:50:10.639Z,20.52
2022-12-10T00:51:42.506Z,19.35
2022-12-10T00:53:16.602Z,20.98
2022-12-10T00:54:48.200Z,20.20
2022-12-10T00:56:22.820Z,18.38
2022-12-10T00:57:54.402Z,21.08
2022-12-10T00:59:26.034Z,19.52
2022-12-10T01:01:15.991Z,20.48
2022-12-10T01:02:47.609Z,20.75
2022-12-10T01:04:19.718Z,20.90
2022-12-10T01:05:51.431Z,21.63
2022-12-10T01:07:23.046Z,20.80
2022-12-10T01:08:58.444Z,22.00
2022-12-10T01:10:31.220Z,19.75
2022-12-10T01:12:03.963Z,21.40
2022-12-10T01:13:36.286Z,22.70
2022-12-10T01:15:08.117Z,22.00
2022-12-10T01:16:39.828Z,22.38
2022-12-10T01:18:11.728Z,20.02
2022-12-10T01:19:43.428Z,19.23
2022-12-10T01:21:18.656Z,20.33
2022-12-10T01:22:50.736Z,18.15
2022-12-10T01:24:27.281Z,19.95
2022-12-10T01:26:07.696Z,22.23
2022-12-10T01:27:39.710Z,21.65
2022-12-10T01:29:12.497Z,22.02
2022-12-10T01:30:45.362Z,21.83
2022-12-10T01:32:16.930Z,21.08
2022-12-10T01:33:49.166Z,19.75
2022-12-10T01:35:20.739Z,22.13
2022-12-10T01:36:55.055Z,21.65
2022-12-10T01:38:26.606Z,20.58
2022-12-10T01:39:58.225Z,21.73
2022-12-10T01:41:36.857Z,21.23
2022-12-10T01:43:15.061Z,20.27
2022-12-10T01:44:49.510Z,24.38
2022-12-10T01:46:22.661Z,20.45
2022-12-10T01:47:54.225Z,20.45
2022-12-10T01:49:27.905Z,19.98
2022-12-10T01:50:59.588Z,19.92
2022-12-10T01:52:31.431Z,20.77
2022-12-10T01:54:06.242Z,19.88
2022-12-10T01:55:48.846Z,20.88
2022-12-10T01:57:26.604Z,20.50
2022-12-10T01:58:58.597Z,20.05
2022-12-10T02:00:33.717Z,19.58
2022-12-10T02:02:37.596Z,19.95
2022-12-10T02:04:28.156Z,18.83
2022-12-10T02:06:13.241Z,20.30
2022-12-10T02:07:47.968Z,18.48
2022-12-10T02:09:46.760Z,20.77
2022-12-10T02:11:38.122Z,18.65
2022-12-10T02:13:31.512Z,20.58
2022-12-10T02:15:11.417Z,18.02
2022-12-10T02:16:55.499Z,20.95
2022-12-10T02:18:59.201Z,19.15
2022-12-10T02:20:37.477Z,21.85
2022-12-10T02:22:14.952Z,19.42
2022-12-10T02:23:52.990Z,22.00
2022-12-10T02:25:34.679Z,20.20
2022-12-10T02:27:23.162Z,19.50
2022-12-10T02:29:19.514Z,19.88
2022-12-10T02:30:57.798Z,19.58
2022-12-10T02:32:38.701Z,21.35
2022-12-10T02:34:11.943Z,20.60
2022-12-10T02:35:48.093Z,19.20
2022-12-10T02:37:30.140Z,17.73
2022-12-10T02:39:06.766Z,19.60
2022-12-10T02:40:46.249Z,18.90
2022-12-10T02:42:19.716Z,18.88
2022-12-10T02:43:55.537Z,17.52
2022-12-10T02:45:31.430Z,20.67
2022-12-10T02:47:06.348Z,19.13
2022-12-10T02:48:42.896Z,18.17
2022-12-10T02:50:17.043Z,19.75
2022-12-10T02:51:48.609Z,19.80
2022-12-10T02:53:20.533Z,18.40
2022-12-10T02:54:52.497Z,19.65
2022-12-10T02:56:31.759Z,19.40
2022-12-10T02:58:09.176Z,19.85
2022-12-10T02:59:59.099Z,19.08
2022-12-10T03:01:55.588Z,18.75
2022-12-10T03:03:36.404Z,18.45
2022-12-10T03:05:20.931Z,17.92
2022-12-10T03:07:03.589Z,17.95
2022-12-10T03:08:40.231Z,19.00
2022-12-10T03:10:11.746Z,17.63
2022-12-10T03:11:45.992Z,18.30
2022-12-10T03:13:21.822Z,17.45
2022-12-10T03:14:57.461Z,18.08
2022-12-10T03:16:40.108Z,19.17
2022-12-10T03:18:13.756Z,19.50
2022-12-10T03:19:48.912Z,19.92
2022-12-10T03:21:21.073Z,20.05
2022-12-10T03:22:52.917Z,18.15
2022-12-10T03:24:27.891Z,18.02
2022-12-10T03:25:59.577Z,18.25
2022-12-10T03:27:32.621Z,17.92
2022-12-10T03:29:09.106Z,19.83
2022-12-10T03:30:43.179Z,19.13
2022-12-10T03:32:16.286Z,18.83
2022-12-10T03:33:48.930Z,18.15
2022-12-10T03:35:24.356Z,20.30
2022-12-10T03:36:56.261Z,19.17
2022-12-10T03:38:28.622Z,19.33
2022-12-10T03:40:00.611Z,20.85
2022-12-10T03:41:32.313Z,17.38
2022-12-10T03:43:03.943Z,19.65
2022-12-10T03:44:38.713Z,18.48
2022-12-10T03:46:10.302Z,20.95
2022-12-10T03:47:42.159Z,20.75
2022-12-10T03:49:14.051Z,18.33
2022-12-10T03:50:45.606Z,19.23
2022-12-10T03:52:17.131Z,19.15
2022-12-10T03:53:51.684Z,17.25
2022-12-10T03:55:23.235Z,18.23
2022-12-10T03:56:55.288Z,18.13
2022-12-10T03:58:26.822Z,19.67
2022-12-10T03:59:58.412Z,19.02
2022-12-10T04:01:30.122Z,18.55
2022-12-10T04:03:02.086Z,19.38
2022-12-10T04:04:33.697Z,19.15
2022-12-10T04:06:07.731Z,19.60
2022-12-10T04:07:40.306Z,19.20
2022-12-10T04:09:13.835Z,19.48
2022-12-10T04:10:47.031Z,16.98
2022-12-10T04:12:18.583Z,18.75
2022-12-10T04:14:08.502Z,20.05
2022-12-10T04:15:58.819Z,16.52
2022-12-10T04:17:33.340Z,21.63
2022-12-10T04:19:08.297Z,19.95
2022-12-10T04:20:58.305Z,18.80
2022-12-10T04:22:48.202Z,18.83
2022-12-10T04:24:40.908Z,19.30
2022-12-10T04:26:31.619Z,19.08
2022-12-10T04:28:03.230Z,17.67
2022-12-10T04:29:35.226Z,18.13
2022-12-10T04:31:07.131Z,20.27
2022-12-10T04:32:39.186Z,20.98
2022-12-10T04:34:10.802Z,19.77
2022-12-10T04:35:42.368Z,19.30
2022-12-10T04:37:15.106Z,18.92
2022-12-10T04:38:46.671Z,18.05
2022-12-10T04:40:18.362Z,17.27
2022-12-10T04:41:51.601Z,17.88
2022-12-10T04:43:23.191Z,18.15
2022-12-10T04:44:54.963Z,21.13
2022-12-10T04:46:26.615Z,19.90
2022-12-10T04:47:58.218Z,19.20
2022-12-10T04:49:29.897Z,19.48
2022-12-10T04:51:01.563Z,21.30
2022-12-10T04:52:33.228Z,18.75
2022-12-10T04:54:05.398Z,18.25
2022-12-10T04:55:36.938Z,19.45
2022-12-10T04:57:09.021Z,19.10
2022-12-10T04:58:40.691Z,19.33
2022-12-10T05:00:13.083Z,19.10
2022-12-10T05:01:45.252Z,20.50
2022-12-10T05:03:16.930Z,20.67
2022-12-10T05:04:50.437Z,18.25
2022-12-10T05:06:22.296Z,17.70
2022-12-10T05:07:53.921Z,18.30
2022-12-10T05:09:25.489Z,18.15
2022-12-10T05:11:04.701Z,18.10
2022-12-10T05:12:37.271Z,18.52
2022-12-10T05:14:11.467Z,17.80
2022-12-10T05:15:43.061Z,19.80
2022-12-10T05:17:14.667Z,17.33
2022-12-10T05:18:46.552Z,18.55
2022-12-10T05:20:18.137Z,17.80
2022-12-10T05:22:08.789Z,17.60
2022-12-10T05:23:43.600Z,16.73
2022-12-10T05:25:15.256Z,17.48
2022-12-10T05:26:47.493Z,18.80
2022-12-10T05:28:23.277Z,16.88
2022-12-10T05:29:54.836Z,18.80
2022-12-10T05:31:29.141Z,18.60
2022-12-10T05:33:00.726Z,17.88
2022-12-10T05:34:32.879Z,16.95
2022-12-10T05:36:04.931Z,18.88
2022-12-10T05:37:36.599Z,18.58
2022-12-10T05:39:08.657Z,17.23
2022-12-10T05:40:40.260Z,18.02
2022-12-10T05:42:11.895Z,18.35
2022-12-10T05:43:44.357Z,18.60
2022-12-10T05:45:16.171Z,18.48
2022-12-10T05:46:47.732Z,18.75
2022-12-10T05:48:19.390Z,17.02
2022-12-10T05:49:52.684Z,17.73
2022-12-10T05:51:30.357Z,17.52
2022-12-10T05:53:01.916Z,18.63
2022-12-10T05:54:34.040Z,18.00
2022-12-10T05:56:11.333Z,17.63
2022-12-10T05:57:42.969Z,18.27
2022-12-10T05:59:16.971Z,17.88
2022-12-10T06:00:48.715Z,18.55
2022-12-10T06:02:20.308Z,17.63
2022-12-10T06:03:53.251Z,19.08
2022-12-10T06:05:24.848Z,17.95
2022-12-10T06:06:56.400Z,18.15
2022-12-10T06:08:27.938Z,17.15
2022-12-10T06:09:59.593Z,17.77
2022-12-10T06:11:31.346Z,17.02
2022-12-10T06:13:04.616Z,17.25
2022-12-10T06:14:36.315Z,16.73
2022-12-10T06:16:10.068Z,16.65
2022-12-10T06:17:41.694Z,17.83
2022-12-10T06:19:13.611Z,17.40
2022-12-10T06:20:47.520Z,17.40
2022-12-10T06:22:19.317Z,18.02
2022-12-10T06:23:52.574Z,18.45
2022-12-10T06:25:24.305Z,18.33
2022-12-10T06:26:56.190Z,18.88
2022-12-10T06:28:28.261Z,18.50
2022-12-10T06:29:59.952Z,14.68
2022-12-10T06:31:31.619Z,16.40
2022-12-10T06:33:03.367Z,16.63
2022-12-10T06:34:37.590Z,18.23
2022-12-10T06:36:15.826Z,16.80
2022-12-10T06:37:47.360Z,16.02
2022-12-10T06:39:18.908Z,16.15
2022-12-10T06:40:50.807Z,16.90
2022-12-10T06:42:23.070Z,15.88
2022-12-10T06:43:59.160Z,16.30
2022-12-10T06:45:30.765Z,15.98
2022-12-10T06:47:02.438Z,15.93
2022-12-10T06:48:34.436Z,17.25
2022-12-10T06:50:06.813Z,14.50
2022-12-10T06:51:39.631Z,15.70
2022-12-10T06:53:11.310Z,16.08
2022-12-10T06:54:43.039Z,16.25
2022-12-10T06:56:17.968Z,14.85
2022-12-10T06:57:53.286Z,17.05
2022-12-10T06:59:25.087Z,14.82
2022-12-10T07:01:04.933Z,15.10
2022-12-10T07:02:36.643Z,16.30
2022-12-10T07:04:09.457Z,15.10
2022-12-10T07:05:41.191Z,16.83
2022-12-10T07:07:12.798Z,17.50
2022-12-10T07:08:44.537Z,16.58
2022-12-10T07:10:16.330Z,15.85
2022-12-10T07:11:47.836Z,16.45
2022-12-10T07:13:19.430Z,16.35
2022-12-10T07:14:50.937Z,15.93
2022-12-10T07:16:26.441Z,15.98
2022-12-10T07:17:58.182Z,16.58
2022-12-10T07:19:29.723Z,18.17
2022-12-10T07:21:01.417Z,18.58
2022-12-10T07:22:33.012Z,16.63
2022-12-10T07:24:07.564Z,16.83
2022-12-10T07:25:39.103Z,16.65
2022-12-10T07:27:10.827Z,15.65
2022-12-10T07:28:52.150Z,15.82
2022-12-10T07:30:24.903Z,17.27
2022-12-10T07:31:56.587Z,16.27
2022-12-10T07:33:28.105Z,16.73
2022-12-10T07:34:59.648Z,15.23
2022-12-10T07:36:31.299Z,15.30
2022-12-10T07:38:02.847Z,16.33
2022-12-10T07:39:34.587Z,14.60
2022-12-10T07:41:10.927Z,14.88
2022-12-10T07:42:42.685Z,16.88
2022-12-10T07:44:14.492Z,15.95
2022-12-10T07:45:46.234Z,16.63
2022-12-10T07:47:18.159Z,16.85
2022-12-10T07:48:50.393Z,15.40
2022-12-10T07:50:22.283Z,15.02
2022-12-10T07:51:54.068Z,16.15
2022-12-10T07:53:25.749Z,15.90
2022-12-10T07:54:57.625Z,16.13
2022-12-10T07:56:29.437Z,15.32
2022-12-10T07:58:01.207Z,14.43
2022-12-10T07:59:33.019Z,15.70
2022-12-10T08:01:10.036Z,16.63
2022-12-10T08:02:41.889Z,15.07
2022-12-10T08:04:13.594Z,16.02
2022-12-10T08:05:45.417Z,14.98
2022-12-10T08:07:17.035Z,14.82
2022-12-10T08:08:49.946Z,15.90
2022-12-10T08:10:21.562Z,17.02
2022-12-10T08:11:54.260Z,13.90
2022-12-10T08:13:26.022Z,15.95
2022-12-10T08:14:57.661Z,15.93
2022-12-10T08:16:32.035Z,16.63
2022-12-10T08:18:03.908Z,16.55
2022-12-10T08:19:35.644Z,15.95
2022-12-10T08:21:09.362Z,16.52
2022-12-10T08:22:41.156Z,13.90
2022-12-10T08:24:12.796Z,16.38
2022-12-10T08:25:44.522Z,16.55
2022-12-10T08:27:16.138Z,15.73
2022-12-10T08:28:49.881Z,15.82
2022-12-10T08:30:22.479Z,15.85
2022-12-10T08:31:54.156Z,15.73
2022-12-10T08:33:26.459Z,16.10
2022-12-10T08:34:58.236Z,16.83
2022-12-10T08:36:31.378Z,16.65
2022-12-10T08:38:02.969Z,14.63
2022-12-10T08:39:34.504Z,15.38
2022-12-10T08:41:12.033Z,14.50
2022-12-10T08:42:43.715Z,17.48
2022-12-10T08:44:15.362Z,17.58
2022-12-10T08:45:47.089Z,14.80
2022-12-10T08:47:18.703Z,16.17
2022-12-10T08:48:50.289Z,15.63
2022-12-10T08:50:21.988Z,15.13
2022-12-10T08:51:53.687Z,15.50
2022-12-10T08:53:25.448Z,15.82
2022-12-10T08:54:57.074Z,20.73
2022-12-10T08:56:28.937Z,15.63
2022-12-10T08:58:00.587Z,15.43
2022-12-10T08:59:32.275Z,14.90
2022-12-10T09:01:12.351Z,16.27
2022-12-10T09:02:44.247Z,15.77
2022-12-10T09:04:16.809Z,15.00
2022-12-10T09:05:48.601Z,16.13
2022-12-10T09:07:20.253Z,14.75
2022-12-10T09:08:53.806Z,16.92
2022-12-10T09:10:25.373Z,18.00
2022-12-10T09:11:56.988Z,16.45
2022-12-10T09:13:29.426Z,17.05
2022-12-10T09:15:01.234Z,15.30
2022-12-10T09:16:37.440Z,17.35
2022-12-10T09:18:09.059Z,15.88
2022-12-10T09:19:40.607Z,14.48
2022-12-10T09:21:14.767Z,16.15
2022-12-10T09:22:46.387Z,15.77
2022-12-10T09:24:17.968Z,15.52
2022-12-10T09:25:49.857Z,16.25
2022-12-10T09:27:21.658Z,15.40
2022-12-10T09:28:54.069Z,16.08
2022-12-10T09:30:25.727Z,14.75
2022-12-10T09:31:57.500Z,15.93
2022-12-10T09:33:30.057Z,15.60
2022-12-10T09:35:01.755Z,15.50
2022-12-10T09:36:34.201Z,14.32
2022-12-10T09:38:06.072Z,14.88
2022-12-10T09:39:37.662Z,15.85
2022-12-10T09:41:38.180Z,14.27
2022-12-10T09:43:31.410Z,16.27
2022-12-10T09:45:26.196Z,14.50
2022-12-10T09:46:59.969Z,13.60
2022-12-10T09:48:50.420Z,14.85
2022-12-10T09:50:31.627Z,13.75
2022-12-10T09:52:06.713Z,13.10
2022-12-10T09:53:39.894Z,13.73
2022-12-10T09:55:18.702Z,15.60
2022-12-10T09:56:56.312Z,13.50
2022-12-10T09:58:30.311Z,14.40
2022-12-10T10:00:30.492Z,15.18
2022-12-10T10:02:30.431Z,15.05
2022-12-10T10:04:04.482Z,15.02
2022-12-10T10:05:40.816Z,14.90
2022-12-10T10:07:31.465Z,15.45
2022-12-10T10:09:04.440Z,14.30
2022-12-10T10:10:39.337Z,15.05
2022-12-10T10:12:18.118Z,13.70
2022-12-10T10:13:56.187Z,13.27
2022-12-10T10:15:45.402Z,14.57
2022-12-10T10:17:32.667Z,13.82
2022-12-10T10:19:16.171Z,14.27
2022-12-10T10:20:48.033Z,14.93
2022-12-10T10:22:19.842Z,14.05
2022-12-10T10:23:52.377Z,14.45
2022-12-10T10:25:28.090Z,14.68
2022-12-10T10:27:11.950Z,14.48
2022-12-10T10:28:47.331Z,13.50
2022-12-10T10:30:23.244Z,14.10
2022-12-10T10:32:13.944Z,15.25
2022-12-10T10:33:58.145Z,13.40
2022-12-10T10:35:34.799Z,15.27
2022-12-10T10:37:06.691Z,13.15
2022-12-10T10:38:38.415Z,13.57
2022-12-10T10:40:24.596Z,13.60
2022-12-10T10:41:58.678Z,15.52
2022-12-10T10:43:42.260Z,15.13
2022-12-10T10:45:37.832Z,14.43
2022-12-10T10:47:34.758Z,12.88
2022-12-10T10:49:26.588Z,13.27
2022-12-10T10:51:21.189Z,13.60
2022-12-10T10:52:52.823Z,13.85
2022-12-10T10:54:42.080Z,13.88
2022-12-10T10:56:21.959Z,14.68
2022-12-10T10:57:53.769Z,15.23
2022-12-10T10:59:34.771Z,15.45
2022-12-10T11:01:09.711Z,14.95
2022-12-10T11:02:44.757Z,14.13
2022-12-10T11:04:19.109Z,15.02
2022-12-10T11:05:50.711Z,13.35
2022-12-10T11:07:26.213Z,14.60
2022-12-10T11:08:59.589Z,14.18
2022-12-10T11:10:32.235Z,13.27
2022-12-10T11:12:21.924Z,12.38
2022-12-10T11:13:53.643Z,13.30
2022-12-10T11:15:25.348Z,13.68
2022-12-10T11:17:13.672Z,12.88
2022-12-10T11:19:03.823Z,13.80
2022-12-10T11:20:42.027Z,14.13
2022-12-10T11:22:34.133Z,12.85
2022-12-10T11:24:12.404Z,13.98
2022-12-10T11:26:08.620Z,15.07
2022-12-10T11:27:58.813Z,13.73
2022-12-10T11:29:49.590Z,13.73
2022-12-10T11:31:51.681Z,14.57
2022-12-10T11:33:42.997Z,13.20
2022-12-10T11:35:17.419Z,12.38
2022-12-10T11:37:31.427Z,13.43
2022-12-10T11:39:32.252Z,13.43
2022-12-10T11:41:31.283Z,13.48
2022-12-10T11:43:26.464Z,13.68
2022-12-10T11:45:10.218Z,13.00
2022-12-10T11:46:55.054Z,12.60
2022-12-10T11:48:35.472Z,13.77
2022-12-10T11:50:20.767Z,13.45
2022-12-10T11:52:12.785Z,13.35
2022-12-10T11:53:56.324Z,13.45
2022-12-10T11:56:06.176Z,13.18
2022-12-10T11:58:15.473Z,10.85
2022-12-10T12:00:15.871Z,13.70
2022-12-10T12:02:00.196Z,11.52
2022-12-10T12:04:09.465Z,12.68
2022-12-10T12:05:53.103Z,11.68
2022-12-10T12:07:53.221Z,12.65
2022-12-10T12:09:36.811Z,13.18
2022-12-10T12:11:28.805Z,12.45
2022-12-10T12:13:11.176Z,11.13
2022-12-10T12:14:58.315Z,11.90
2022-12-10T12:16:32.670Z,11.18
2022-12-10T12:18:23.107Z,9.93
2022-12-10T12:20:15.857Z,9.25
2022-12-10T12:21:51.016Z,10.40
2022-12-10T12:23:32.220Z,10.57
2022-12-10T12:25:17.147Z,11.05
2022-12-10T12:27:02.577Z,13.23
2022-12-10T12:29:07.919Z,12.27
2022-12-10T12:30:42.659Z,13.43
2022-12-10T12:32:20.428Z,12.93
2022-12-10T12:34:06.411Z,13.50
2022-12-10T12:35:51.095Z,11.98
2022-12-10T12:37:31.043Z,12.20
2022-12-10T12:39:16.940Z,12.23
2022-12-10T12:41:04.435Z,14.20
2022-12-10T12:42:45.221Z,13.77
2022-12-10T12:44:44.741Z,13.18
2022-12-10T12:46:34.547Z,12.55
2022-12-10T12:48:31.695Z,10.38
2022-12-10T12:50:06.209Z,9.00
2022-12-10T12:51:44.725Z,11.02
2022-12-10T12:53:20.603Z,11.75
2022-12-10T12:54:55.069Z,10.38
2022-12-10T12:56:38.290Z,10.45
2022-12-10T12:58:16.494Z,8.65
2022-12-10T13:00:11.266Z,9.52
2022-12-10T13:01:55.028Z,8.88
2022-12-10T13:03:41.090Z,10.25
2022-12-10T13:05:19.483Z,11.32
2022-12-10T13:07:27.997Z,11.13
2022-12-10T13:09:25.651Z,11.98
2022-12-10T13:11:15.249Z,8.63
2022-12-10T13:12:46.847Z,9.25
2022-12-10T13:14:34.827Z,10.38
2022-12-10T13:16:46.209Z,14.35
2022-12-10T13:18:21.756Z,14.82
2022-12-10T13:19:55.046Z,14.43
2022-12-10T13:21:31.033Z,13.65
2022-12-10T13:23:05.067Z,11.63
2022-12-10T13:24:36.650Z,12.10
2022-12-10T13:26:31.929Z,13.02
2022-12-10T13:28:22.614Z,15.90
2022-12-10T13:30:26.472Z,15.57
2022-12-10T13:32:17.917Z,13.13
2022-12-10T13:34:05.352Z,12.25
2022-12-10T13:35:49.610Z,12.52
2022-12-10T13:37:32.402Z,12.88
2022-12-10T13:39:03.960Z,11.75
2022-12-10T13:41:01.301Z,11.98
2022-12-10T13:42:54.086Z,11.95
2022-12-10T13:44:49.128Z,11.75
2022-12-10T13:46:35.984Z,11.45
2022-12-10T13:48:36.313Z,10.80
2022-12-10T13:50:41.336Z,10.48
2022-12-10T13:52:26.775Z,12.40
2022-12-10T13:53:58.391Z,11.15
2022-12-10T13:55:59.018Z,14.00
2022-12-10T13:57:47.143Z,11.40
2022-12-10T13:59:30.394Z,13.65
2022-12-10T14:01:09.242Z,14.98
2022-12-10T14:03:18.386Z,12.68
2022-12-10T14:05:08.566Z,11.48
2022-12-10T14:06:41.200Z,11.82
2022-12-10T14:08:19.512Z,12.68
2022-12-10T14:09:54.894Z,13.00
2022-12-10T14:11:37.146Z,11.73
2022-12-10T14:13:14.417Z,11.85
2022-12-10T14:14:55.889Z,13.50
2022-12-10T14:16:32.130Z,11.63
2022-12-10T14:18:16.277Z,13.52
2022-12-10T14:19:51.590Z,11.43
2022-12-10T14:21:25.490Z,12.38
2022-12-10T14:23:17.724Z,11.85
2022-12-10T14:24:51.295Z,11.80
2022-12-10T14:26:29.288Z,11.88
2022-12-10T14:28:02.871Z,12.43
2022-12-10T14:29:34.611Z,10.98
2022-12-10T14:31:12.348Z,12.55
2022-12-10T14:32:44.850Z,12.00
2022-12-10T14:34:22.291Z,11.75
2022-12-10T14:35:54.568Z,10.70
2022-12-10T14:37:30.555Z,10.25
2022-12-10T14:39:02.905Z,11.55
2022-12-10T14:40:42.809Z,10.32
2022-12-10T14:42:17.250Z,11.55
2022-12-10T14:43:49.596Z,11.48
2022-12-10T14:45:21.256Z,11.35
2022-12-10T14:46:53.204Z,11.00
2022-12-10T14:48:25.817Z,10.98
2022-12-10T14:49:57.471Z,13.65
2022-12-10T14:51:34.359Z,13.55
2022-12-10T14:53:12.703Z,12.13
2022-12-10T14:54:45.142Z,12.57
2022-12-10T14:56:25.640Z,11.05
2022-12-10T14:58:04.173Z,9.90
2022-12-10T14:59:52.120Z,10.70
2022-12-10T15:01:28.422Z,11.00
2022-12-10T15:03:09.550Z,10.88
2022-12-10T15:04:44.807Z,10.57
2022-12-10T15:06:20.013Z,11.32
2022-12-10T15:08:16.070Z,11.40
2022-12-10T15:09:49.715Z,10.95
2022-12-10T15:11:21.566Z,10.98
2022-12-10T15:12:54.895Z,11.43
2022-12-10T15:14:29.321Z,11.32
2022-12-10T15:16:02.038Z,11.88
2022-12-10T15:17:43.502Z,10.70
2022-12-10T15:19:25.449Z,10.73
2022-12-10T15:21:14.789Z,10.52
2022-12-10T15:22:46.540Z,10.25
2022-12-10T15:24:21.258Z,10.98
2022-12-10T15:25:58.590Z,9.95
2022-12-10T15:27:30.406Z,11.68
2022-12-10T15:29:27.785Z,10.80
2022-12-10T15:31:13.893Z,9.93
2022-12-10T15:32:49.689Z,10.82
2022-12-10T15:34:21.564Z,11.07
2022-12-10T15:35:55.831Z,11.00
2022-12-10T15:37:34.631Z,9.65
2022-12-10T15:39:17.675Z,10.98
2022-12-10T15:40:49.349Z,10.20
2022-12-10T15:42:38.370Z,10.80
2022-12-10T15:44:31.426Z,11.15
2022-12-10T15:46:06.035Z,11.27
2022-12-10T15:47:39.456Z,10.18
2022-12-10T15:49:11.123Z,11.25
2022-12-10T15:50:46.178Z,11.25
2022-12-10T15:52:19.305Z,11.95
2022-12-10T15:53:50.935Z,12.23
2022-12-10T15:55:22.765Z,11.50
2022-12-10T15:56:54.342Z,12.02
2022-12-10T15:58:27.008Z,12.95
2022-12-10T16:00:04.092Z,12.45
2022-12-10T16:01:43.358Z,13.15
2022-12-10T16:03:17.572Z,14.02
2022-12-10T16:04:49.212Z,14.02
2022-12-10T16:06:20.863Z,15.35
2022-12-10T16:07:54.791Z,15.80
2022-12-10T16:09:26.467Z,13.88
2022-12-10T16:11:01.768Z,13.45
2022-12-10T16:12:40.145Z,12.75
2022-12-10T16:14:14.179Z,12.05
2022-12-10T16:15:59.793Z,13.40
2022-12-10T16:17:31.724Z,12.45
2022-12-10T16:19:11.753Z,10.55
2022-12-10T16:20:43.732Z,11.15
2022-12-10T16:22:15.336Z,12.77
2022-12-10T16:23:49.288Z,12.82
2022-12-10T16:25:22.403Z,11.27
2022-12-10T16:26:53.988Z,11.25
2022-12-10T16:28:26.922Z,11.07
2022-12-10T16:29:58.598Z,12.43
2022-12-10T16:31:30.947Z,11.40
2022-12-10T16:33:03.648Z,11.02
2022-12-10T16:34:35.240Z,13.68
2022-12-10T16:36:07.029Z,13.35
2022-12-10T16:37:38.665Z,13.98
2022-12-10T16:39:10.372Z,13.77
2022-12-10T16:40:43.599Z,14.10
2022-12-10T16:42:15.269Z,11.45
2022-12-10T16:43:47.106Z,11.43
2022-12-10T16:45:34.442Z,11.27
2022-12-10T16:47:13.045Z,10.68
2022-12-10T16:48:44.688Z,11.68
2022-12-10T16:50:17.284Z,11.85
2022-12-10T16:51:48.861Z,11.75
2022-12-10T16:53:27.340Z,11.68
2022-12-10T16:54:58.898Z,12.07
2022-12-10T16:56:31.234Z,11.20
2022-12-10T16:58:03.129Z,11.02
2022-12-10T16:59:34.726Z,10.60
2022-12-10T17:01:17.020Z,10.50
2022-12-10T17:02:49.554Z,10.13
2022-12-10T17:04:21.192Z,10.52
2022-12-10T17:05:58.066Z,13.20
2022-12-10T17:07:29.620Z,10.75
2022-12-10T17:09:01.212Z,11.07
2022-12-10T17:10:51.703Z,11.68
2022-12-10T17:12:24.153Z,11.05
2022-12-10T17:13:55.783Z,11.00
2022-12-10T17:15:27.644Z,10.40
2022-12-10T17:17:01.240Z,11.75
2022-12-10T17:18:34.875Z,11.52
2022-12-10T17:20:18.645Z,11.63
2022-12-10T17:21:50.989Z,11.23
2022-12-10T17:23:22.898Z,11.23
2022-12-10T17:24:54.491Z,10.98
2022-12-10T17:26:31.617Z,13.55
2022-12-10T17:28:03.445Z,11.88
2022-12-10T17:29:39.459Z,12.75
2022-12-10T17:31:11.096Z,11.63
2022-12-10T17:32:43.741Z,11.18
2022-12-10T17:34:16.230Z,11.80
2022-12-10T17:35:48.678Z,11.82
2022-12-10T17:37:21.194Z,12.60
2022-12-10T17:38:52.786Z,12.77
2022-12-10T17:40:24.629Z,11.73
2022-12-10T17:41:56.449Z,12.55
2022-12-10T17:43:28.034Z,11.35
2022-12-10T17:44:59.691Z,12.98
2022-12-10T17:46:32.606Z,13.25
2022-12-10T17:48:06.881Z,12.48
2022-12-10T17:49:38.612Z,12.38
2022-12-10T17:51:13.117Z,12.98
2022-12-10T17:52:44.716Z,13.40
2022-12-10T17:54:16.323Z,12.77
2022-12-10T17:55:58.531Z,16.63
2022-12-10T17:57:30.176Z,16.45
2022-12-10T17:59:01.749Z,13.68
2022-12-10T18:00:36.247Z,44.05
2022-12-10T18:02:09.016Z,25.15
2022-12-10T18:03:41.084Z,16.17
2022-12-10T18:05:12.689Z,12.55
2022-12-10T18:06:44.289Z,13.68
2022-12-10T18:08:23.650Z,12.05
2022-12-10T18:09:55.588Z,12.57
2022-12-10T18:11:30.683Z,12.25
2022-12-10T18:13:02.364Z,11.05
2022-12-10T18:14:34.000Z,10.27
2022-12-10T18:16:12.545Z,11.02
2022-12-10T18:17:46.292Z,11.57
2022-12-10T18:19:18.327Z,10.90
2022-12-10T18:20:50.008Z,11.10
2022-12-10T18:22:21.692Z,9.73
2022-12-10T18:23:54.685Z,10.30
2022-12-10T18:25:26.941Z,11.30
2022-12-10T18:26:59.273Z,11.75
2022-12-10T18:28:30.821Z,10.90
2022-12-10T18:30:02.628Z,11.15
2022-12-10T18:31:36.284Z,11.48
2022-12-10T18:33:14.091Z,11.13
2022-12-10T18:34:45.775Z,10.20
2022-12-10T18:36:26.007Z,10.85
2022-12-10T18:37:57.730Z,10.73
2022-12-10T18:39:32.416Z,11.00
2022-12-10T18:41:03.979Z,11.23
2022-12-10T18:42:35.569Z,11.65
2022-12-10T18:44:07.185Z,11.05
2022-12-10T18:45:38.865Z,10.70
2022-12-10T18:47:12.780Z,10.50
2022-12-10T18:48:44.823Z,11.07
2022-12-10T18:50:25.959Z,11.70
2022-12-10T18:51:57.544Z,10.73
2022-12-10T18:53:29.173Z,12.25
2022-12-10T18:55:00.768Z,9.70
2022-12-10T18:56:34.217Z,11.45
2022-12-10T18:58:07.195Z,9.98
2022-12-10T18:59:39.219Z,10.15
2022-12-10T19:01:13.524Z,10.35
2022-12-10T19:02:46.350Z,10.43
2022-12-10T19:04:17.987Z,9.40
2022-12-10T19:05:49.551Z,9.02
2022-12-10T19:07:21.114Z,11.20
2022-12-10T19:10:46.587Z,9.68
2022-12-10T19:12:18.283Z,10.23
2022-12-10T19:13:50.625Z,14.68
2022-12-10T19:15:22.666Z,14.15
2022-12-10T19:16:54.252Z,12.95
2022-12-10T19:18:25.841Z,12.30
2022-12-10T19:19:57.410Z,11.02
2022-12-10T19:21:29.785Z,11.57
2022-12-10T19:23:01.520Z,10.80
2022-12-10T19:24:33.079Z,11.25
2022-12-10T19:26:14.153Z,12.25
2022-12-10T19:27:45.824Z,11.93
2022-12-10T19:29:20.181Z,11.15
2022-12-10T19:30:51.956Z,11.32
2022-12-10T19:32:23.576Z,11.18
2022-12-10T19:33:55.437Z,12.05
2022-12-10T19:35:27.995Z,10.57
2022-12-10T19:36:59.884Z,11.68
2022-12-10T19:38:31.603Z,11.02
2022-12-10T19:40:04.456Z,9.52
2022-12-10T19:41:36.076Z,10.07
2022-12-10T19:43:11.610Z,11.35
2022-12-10T19:44:45.680Z,10.52
2022-12-10T19:46:25.808Z,10.57
2022-12-10T19:47:58.028Z,9.70
2022-12-10T19:49:29.813Z,10.60
2022-12-10T19:51:01.481Z,10.55
2022-12-10T19:52:33.159Z,10.68
2022-12-10T19:54:04.835Z,10.77
2022-12-10T19:55:36.530Z,11.02
2022-12-10T19:57:12.571Z,12.07
2022-12-10T19:58:44.276Z,11.63
2022-12-10T20:00:21.628Z,12.60
2022-12-10T20:01:53.317Z,10.88
2022-12-10T20:03:24.981Z,11.70
2022-12-10T20:04:56.847Z,12.40
2022-12-10T20:06:34.393Z,10.93
2022-12-10T20:08:06.725Z,11.13
2022-12-10T20:09:38.384Z,10.77
2022-12-10T20:11:10.024Z,11.07
2022-12-10T20:12:41.692Z,11.35
2022-12-10T20:14:13.373Z,12.82
2022-12-10T20:15:49.844Z,11.73
2022-12-10T20:17:24.851Z,11.63
2022-12-10T20:18:57.910Z,12.50
2022-12-10T20:20:30.005Z,11.60
2022-12-10T20:22:02.363Z,10.65
2022-12-10T20:23:34.340Z,11.13
2022-12-10T20:25:06.065Z,11.55
2022-12-10T20:26:43.447Z,11.57
2022-12-10T20:28:15.902Z,11.10
2022-12-10T20:29:47.585Z,12.15
2022-12-10T20:31:19.266Z,13.05
2022-12-10T20:32:54.281Z,12.98
2022-12-10T20:34:26.690Z,11.75
2022-12-10T20:35:59.169Z,12.65
2022-12-10T20:37:30.695Z,11.40
2022-12-10T20:39:02.323Z,12.07
2022-12-10T20:40:34.120Z,10.73
2022-12-10T20:42:05.927Z,11.20
2022-12-10T20:43:37.550Z,12.65
2022-12-10T20:45:09.713Z,12.48